sensor_id;sensor_type;location;lat;lon;timestamp;pressure;altitude;pressure_sealevel;temperature;humidity
36258;BME280;22294;52.044;4.582;2023-02-18T00:00:11;77374.41;;;-144.37;100.00
36258;BME280;22294;52.044;4.582;2023-02-18T00:02:37;77370.34;;;-144.37;100.00
36258;BME280;22294;52.044;4.582;2023-02-18T00:05:03;77372.38;;;-144.37;100.00
36258;BME280;22294;52.044;4.582;2023-02-18T00:07:35;77366.25;;;-144.37;100.00
36258;BME280;22294;52.044;4.582;2023-02-18T00:10:02;77376.47;;;-144.37;100.00
36258;BME280;22294;52.044;4.582;2023-02-18T00:12:29;77380.56;;;-144.37;100.00
36258;BME280;22294;52.044;4.582;2023-02-18T00:14:55;77382.59;;;-144.37;100.00
36258;BME280;22294;52.044;4.582;2023-02-18T00:17:20;77374.41;;;-144.37;100.00
36258;BME280;22294;52.044;4.582;2023-02-18T00:19:45;77388.75;;;-144.37;100.00
36258;BME280;22294;52.044;4.582;2023-02-18T00:22:11;77386.69;;;-144.37;100.00
36258;BME280;22294;52.044;4.582;2023-02-18T00:24:37;77384.66;;;-144.37;100.00
36258;BME280;22294;52.044;4.582;2023-02-18T00:27:02;77378.50;;;-144.37;100.00
36258;BME280;22294;52.044;4.582;2023-02-18T00:29:28;77392.84;;;-144.37;100.00
36258;BME280;22294;52.044;4.582;2023-02-18T00:31:53;77382.59;;;-144.37;100.00
36258;BME280;22294;52.044;4.582;2023-02-18T00:34:18;77368.28;;;-144.37;100.00
36258;BME280;22294;52.044;4.582;2023-02-18T00:36:44;77378.50;;;-144.37;100.00
36258;BME280;22294;52.044;4.582;2023-02-18T00:39:10;77390.78;;;-144.37;100.00
36258;BME280;22294;52.044;4.582;2023-02-18T00:41:36;77388.75;;;-144.37;100.00
36258;BME280;22294;52.044;4.582;2023-02-18T00:44:02;77380.56;;;-144.37;100.00
36258;BME280;22294;52.044;4.582;2023-02-18T00:46:29;77384.66;;;-144.37;100.00
36258;BME280;22294;52.044;4.582;2023-02-18T00:48:55;77380.56;;;-144.37;100.00
36258;BME280;22294;52.044;4.582;2023-02-18T00:51:21;77392.84;;;-144.37;100.00
36258;BME280;22294;52.044;4.582;2023-02-18T00:53:46;77407.16;;;-144.37;100.00
36258;BME280;22294;52.044;4.582;2023-02-18T00:56:12;77392.84;;;-144.37;100.00
36258;BME280;22294;52.044;4.582;2023-02-18T00:58:37;77394.88;;;-144.37;100.00
36258;BME280;22294;52.044;4.582;2023-02-18T01:01:05;77390.78;;;-144.37;100.00
36258;BME280;22294;52.044;4.582;2023-02-18T01:03:30;77394.88;;;-144.37;100.00
36258;BME280;22294;52.044;4.582;2023-02-18T01:05:56;77394.88;;;-144.37;100.00
36258;BME280;22294;52.044;4.582;2023-02-18T01:08:21;77382.59;;;-144.37;100.00
36258;BME280;22294;52.044;4.582;2023-02-18T01:10:48;77380.56;;;-144.37;100.00
36258;BME280;22294;52.044;4.582;2023-02-18T01:13:15;77382.59;;;-144.37;100.00
36258;BME280;22294;52.044;4.582;2023-02-18T01:15:41;77388.75;;;-144.37;100.00
36258;BME280;22294;52.044;4.582;2023-02-18T01:18:08;77382.59;;;-144.37;100.00
36258;BME280;22294;52.044;4.582;2023-02-18T01:20:34;77380.56;;;-144.37;100.00
36258;BME280;22294;52.044;4.582;2023-02-18T01:23:00;77378.50;;;-144.37;100.00
36258;BME280;22294;52.044;4.582;2023-02-18T01:25:25;77392.84;;;-144.37;100.00
36258;BME280;22294;52.044;4.582;2023-02-18T01:27:50;77386.69;;;-144.37;100.00
36258;BME280;22294;52.044;4.582;2023-02-18T01:30:16;77376.47;;;-144.37;100.00
36258;BME280;22294;52.044;4.582;2023-02-18T01:32:42;77394.88;;;-144.37;100.00
36258;BME280;22294;52.044;4.582;2023-02-18T01:35:11;77390.78;;;-144.37;100.00
36258;BME280;22294;52.044;4.582;2023-02-18T01:37:36;77384.66;;;-144.37;100.00
36258;BME280;22294;52.044;4.582;2023-02-18T01:40:02;77384.66;;;-144.37;100.00
36258;BME280;22294;52.044;4.582;2023-02-18T01:42:28;77376.47;;;-144.37;100.00
36258;BME280;22294;52.044;4.582;2023-02-18T01:50:47;77380.56;;;-144.37;100.00
36258;BME280;22294;52.044;4.582;2023-02-18T01:53:15;77376.47;;;-144.37;100.00
36258;BME280;22294;52.044;4.582;2023-02-18T01:55:42;77370.34;;;-144.37;100.00
36258;BME280;22294;52.044;4.582;2023-02-18T01:58:09;77368.28;;;-144.37;100.00
36258;BME280;22294;52.044;4.582;2023-02-18T02:00:35;77364.19;;;-144.37;100.00
36258;BME280;22294;52.044;4.582;2023-02-18T02:03:01;77366.25;;;-144.37;100.00
36258;BME280;22294;52.044;4.582;2023-02-18T02:05:30;77360.09;;;-144.37;100.00
36258;BME280;22294;52.044;4.582;2023-02-18T02:07:56;77343.72;;;-144.37;100.00
36258;BME280;22294;52.044;4.582;2023-02-18T02:10:21;77335.56;;;-144.37;100.00
36258;BME280;22294;52.044;4.582;2023-02-18T02:35:28;77284.41;;;-144.37;100.00
36258;BME280;22294;52.044;4.582;2023-02-18T02:38:03;77278.28;;;-144.37;100.00
36258;BME280;22294;52.044;4.582;2023-02-18T02:40:37;77268.03;;;-144.37;100.00
36258;BME280;22294;52.044;4.582;2023-02-18T02:43:24;77255.78;;;-144.37;100.00
36258;BME280;22294;52.044;4.582;2023-02-18T02:46:01;77257.81;;;-144.37;100.00
36258;BME280;22294;52.044;4.582;2023-02-18T02:48:53;77253.72;;;-144.37;100.00
36258;BME280;22294;52.044;4.582;2023-02-18T02:51:33;77257.81;;;-144.37;100.00
36258;BME280;22294;52.044;4.582;2023-02-18T02:54:11;77253.72;;;-144.37;100.00
36258;BME280;22294;52.044;4.582;2023-02-18T02:56:37;77255.78;;;-144.37;100.00
36258;BME280;22294;52.044;4.582;2023-02-18T02:59:07;77255.78;;;-144.37;100.00
36258;BME280;22294;52.044;4.582;2023-02-18T03:09:41;77245.53;;;-144.37;100.00
36258;BME280;22294;52.044;4.582;2023-02-18T03:18:02;77239.41;;;-144.37;100.00
36258;BME280;22294;52.044;4.582;2023-02-18T03:20:35;77247.59;;;-144.37;100.00
36258;BME280;22294;52.044;4.582;2023-02-18T03:23:03;77233.25;;;-144.37;100.00
36258;BME280;22294;52.044;4.582;2023-02-18T03:25:31;77231.22;;;-144.37;100.00
36258;BME280;22294;52.044;4.582;2023-02-18T03:28:04;77225.09;;;-144.37;100.00
36258;BME280;22294;52.044;4.582;2023-02-18T03:30:40;77206.66;;;-144.37;100.00
36258;BME280;22294;52.044;4.582;2023-02-18T03:33:09;77216.91;;;-144.37;100.00
36258;BME280;22294;52.044;4.582;2023-02-18T03:35:37;77223.03;;;-144.37;100.00
36258;BME280;22294;52.044;4.582;2023-02-18T03:38:10;77214.84;;;-144.37;100.00
36258;BME280;22294;52.044;4.582;2023-02-18T03:40:37;77204.63;;;-144.37;100.00
36258;BME280;22294;52.044;4.582;2023-02-18T03:43:04;77202.56;;;-144.37;100.00
36258;BME280;22294;52.044;4.582;2023-02-18T03:45:29;77186.22;;;-144.37;100.00
36258;BME280;22294;52.044;4.582;2023-02-18T03:47:54;77198.50;;;-144.37;100.00
36258;BME280;22294;52.044;4.582;2023-02-18T03:50:20;77196.44;;;-144.37;100.00
36258;BME280;22294;52.044;4.582;2023-02-18T03:52:46;77186.22;;;-144.37;100.00
36258;BME280;22294;52.044;4.582;2023-02-18T03:55:13;77194.41;;;-144.37;100.00
36258;BME280;22294;52.044;4.582;2023-02-18T03:57:39;77190.31;;;-144.37;100.00
36258;BME280;22294;52.044;4.582;2023-02-18T04:00:05;77184.16;;;-144.37;100.00
36258;BME280;22294;52.044;4.582;2023-02-18T04:02:31;77188.25;;;-144.37;100.00
36258;BME280;22294;52.044;4.582;2023-02-18T04:04:57;77186.22;;;-144.37;100.00
36258;BME280;22294;52.044;4.582;2023-02-18T04:07:22;77184.16;;;-144.37;100.00
36258;BME280;22294;52.044;4.582;2023-02-18T04:09:48;77186.22;;;-144.37;100.00
36258;BME280;22294;52.044;4.582;2023-02-18T04:12:13;77192.34;;;-144.37;100.00
36258;BME280;22294;52.044;4.582;2023-02-18T04:14:38;77175.97;;;-144.37;100.00
36258;BME280;22294;52.044;4.582;2023-02-18T04:17:03;77169.84;;;-144.37;100.00
36258;BME280;22294;52.044;4.582;2023-02-18T04:19:30;77167.81;;;-144.37;100.00
36258;BME280;22294;52.044;4.582;2023-02-18T04:21:56;77161.66;;;-144.37;100.00
36258;BME280;22294;52.044;4.582;2023-02-18T04:24:23;77161.66;;;-144.37;100.00
36258;BME280;22294;52.044;4.582;2023-02-18T04:26:48;77149.41;;;-144.37;100.00
36258;BME280;22294;52.044;4.582;2023-02-18T04:29:13;77147.34;;;-144.37;100.00
36258;BME280;22294;52.044;4.582;2023-02-18T04:31:39;77143.25;;;-144.37;100.00
36258;BME280;22294;52.044;4.582;2023-02-18T04:34:04;77145.31;;;-144.37;100.00
36258;BME280;22294;52.044;4.582;2023-02-18T04:36:29;77139.16;;;-144.37;100.00
36258;BME280;22294;52.044;4.582;2023-02-18T04:38:56;77130.97;;;-144.37;100.00
36258;BME280;22294;52.044;4.582;2023-02-18T04:41:22;77130.97;;;-144.37;100.00
36258;BME280;22294;52.044;4.582;2023-02-18T04:43:48;77122.81;;;-144.37;100.00
36258;BME280;22294;52.044;4.582;2023-02-18T04:46:13;77118.72;;;-144.37;100.00
36258;BME280;22294;52.044;4.582;2023-02-18T04:48:38;77116.66;;;-144.37;100.00
36258;BME280;22294;52.044;4.582;2023-02-18T04:51:04;77108.47;;;-144.37;100.00
36258;BME280;22294;52.044;4.582;2023-02-18T04:53:29;77106.44;;;-144.37;100.00
36258;BME280;22294;52.044;4.582;2023-02-18T04:55:56;77102.34;;;-144.37;100.00
36258;BME280;22294;52.044;4.582;2023-02-18T04:58:21;77108.47;;;-144.37;100.00
36258;BME280;22294;52.044;4.582;2023-02-18T05:00:46;77100.28;;;-144.37;100.00
36258;BME280;22294;52.044;4.582;2023-02-18T05:03:12;77110.53;;;-144.37;100.00
36258;BME280;22294;52.044;4.582;2023-02-18T05:05:37;77110.53;;;-144.37;100.00
36258;BME280;22294;52.044;4.582;2023-02-18T05:08:03;77104.38;;;-144.37;100.00
36258;BME280;22294;52.044;4.582;2023-02-18T05:10:28;77102.34;;;-144.37;100.00
36258;BME280;22294;52.044;4.582;2023-02-18T05:12:54;77098.25;;;-144.37;100.00
36258;BME280;22294;52.044;4.582;2023-02-18T05:15:20;77104.38;;;-144.37;100.00
36258;BME280;22294;52.044;4.582;2023-02-18T05:17:46;77100.28;;;-144.37;100.00
36258;BME280;22294;52.044;4.582;2023-02-18T05:20:11;77098.25;;;-144.37;100.00
36258;BME280;22294;52.044;4.582;2023-02-18T05:22:37;77092.13;;;-144.37;100.00
36258;BME280;22294;52.044;4.582;2023-02-18T05:25:03;77088.03;;;-144.37;100.00
36258;BME280;22294;52.044;4.582;2023-02-18T05:27:28;77081.88;;;-144.37;100.00
36258;BME280;22294;52.044;4.582;2023-02-18T05:29:54;77083.94;;;-144.37;100.00
36258;BME280;22294;52.044;4.582;2023-02-18T05:32:22;77079.84;;;-144.37;100.00
36258;BME280;22294;52.044;4.582;2023-02-18T05:34:47;77075.75;;;-144.37;100.00
36258;BME280;22294;52.044;4.582;2023-02-18T05:37:13;77067.56;;;-144.37;100.00
36258;BME280;22294;52.044;4.582;2023-02-18T05:39:39;77071.66;;;-144.37;100.00
36258;BME280;22294;52.044;4.582;2023-02-18T05:42:04;77067.56;;;-144.37;100.00
36258;BME280;22294;52.044;4.582;2023-02-18T05:44:30;77067.56;;;-144.37;100.00
36258;BME280;22294;52.044;4.582;2023-02-18T05:47:00;77065.53;;;-144.37;100.00
36258;BME280;22294;52.044;4.582;2023-02-18T05:49:28;77065.53;;;-144.37;100.00
36258;BME280;22294;52.044;4.582;2023-02-18T05:51:54;77071.66;;;-144.37;100.00
36258;BME280;22294;52.044;4.582;2023-02-18T05:54:19;77088.03;;;-144.37;100.00
36258;BME280;22294;52.044;4.582;2023-02-18T05:56:45;77083.94;;;-144.37;100.00
36258;BME280;22294;52.044;4.582;2023-02-18T05:59:10;77083.94;;;-144.37;100.00
36258;BME280;22294;52.044;4.582;2023-02-18T06:01:36;77083.94;;;-144.37;100.00
36258;BME280;22294;52.044;4.582;2023-02-18T06:04:03;77073.69;;;-144.37;100.00
36258;BME280;22294;52.044;4.582;2023-02-18T06:06:28;77073.69;;;-144.37;100.00
36258;BME280;22294;52.044;4.582;2023-02-18T06:08:54;77077.78;;;-144.37;100.00
36258;BME280;22294;52.044;4.582;2023-02-18T06:11:21;77083.94;;;-144.37;100.00
36258;BME280;22294;52.044;4.582;2023-02-18T06:13:47;77088.03;;;-144.37;100.00
36258;BME280;22294;52.044;4.582;2023-02-18T06:16:13;77081.88;;;-144.37;100.00
36258;BME280;22294;52.044;4.582;2023-02-18T06:18:38;77081.88;;;-144.37;100.00
36258;BME280;22294;52.044;4.582;2023-02-18T06:21:04;77081.88;;;-144.37;100.00
36258;BME280;22294;52.044;4.582;2023-02-18T06:23:29;77081.88;;;-144.37;100.00
36258;BME280;22294;52.044;4.582;2023-02-18T06:25:55;77077.78;;;-144.37;100.00
36258;BME280;22294;52.044;4.582;2023-02-18T06:28:21;77069.63;;;-144.37;100.00
36258;BME280;22294;52.044;4.582;2023-02-18T06:30:46;77061.44;;;-144.37;100.00
36258;BME280;22294;52.044;4.582;2023-02-18T06:33:12;77069.63;;;-144.37;100.00
36258;BME280;22294;52.044;4.582;2023-02-18T06:35:39;77061.44;;;-144.37;100.00
36258;BME280;22294;52.044;4.582;2023-02-18T06:38:04;77057.34;;;-144.37;100.00
36258;BME280;22294;52.044;4.582;2023-02-18T06:40:30;77057.34;;;-144.37;100.00
36258;BME280;22294;52.044;4.582;2023-02-18T06:42:56;77051.19;;;-144.37;100.00
36258;BME280;22294;52.044;4.582;2023-02-18T06:45:21;77061.44;;;-144.37;100.00
36258;BME280;22294;52.044;4.582;2023-02-18T06:47:47;77061.44;;;-144.37;100.00
36258;BME280;22294;52.044;4.582;2023-02-18T06:50:12;77063.47;;;-144.37;100.00
36258;BME280;22294;52.044;4.582;2023-02-18T06:52:37;77057.34;;;-144.37;100.00
36258;BME280;22294;52.044;4.582;2023-02-18T06:55:08;77063.47;;;-144.37;100.00
36258;BME280;22294;52.044;4.582;2023-02-18T06:57:36;77063.47;;;-144.37;100.00
36258;BME280;22294;52.044;4.582;2023-02-18T07:00:03;77057.34;;;-144.37;100.00
36258;BME280;22294;52.044;4.582;2023-02-18T07:02:30;77055.28;;;-144.37;100.00
36258;BME280;22294;52.044;4.582;2023-02-18T07:04:55;77079.84;;;-144.37;100.00
36258;BME280;22294;52.044;4.582;2023-02-18T07:07:21;77067.56;;;-144.37;100.00
36258;BME280;22294;52.044;4.582;2023-02-18T07:09:46;77045.06;;;-144.37;100.00
36258;BME280;22294;52.044;4.582;2023-02-18T07:12:11;77055.28;;;-144.37;100.00
36258;BME280;22294;52.044;4.582;2023-02-18T07:14:36;77057.34;;;-144.37;100.00
36258;BME280;22294;52.044;4.582;2023-02-18T07:17:02;77045.06;;;-144.37;100.00
36258;BME280;22294;52.044;4.582;2023-02-18T07:19:27;77051.19;;;-144.37;100.00
36258;BME280;22294;52.044;4.582;2023-02-18T07:21:52;77055.28;;;-144.37;100.00
36258;BME280;22294;52.044;4.582;2023-02-18T07:24:22;77059.38;;;-144.37;100.00
36258;BME280;22294;52.044;4.582;2023-02-18T07:26:47;77067.56;;;-144.37;100.00
36258;BME280;22294;52.044;4.582;2023-02-18T07:29:13;77059.38;;;-144.37;100.00
36258;BME280;22294;52.044;4.582;2023-02-18T07:31:39;77055.28;;;-144.37;100.00
36258;BME280;22294;52.044;4.582;2023-02-18T07:34:04;77059.38;;;-144.37;100.00
36258;BME280;22294;52.044;4.582;2023-02-18T07:36:29;77047.09;;;-144.37;100.00
36258;BME280;22294;52.044;4.582;2023-02-18T07:38:54;77057.34;;;-144.37;100.00
36258;BME280;22294;52.044;4.582;2023-02-18T07:41:22;77051.19;;;-144.37;100.00
36258;BME280;22294;52.044;4.582;2023-02-18T07:43:48;77040.97;;;-144.37;100.00
36258;BME280;22294;52.044;4.582;2023-02-18T07:46:13;77053.25;;;-144.37;100.00
36258;BME280;22294;52.044;4.582;2023-02-18T07:48:38;77055.28;;;-144.37;100.00
36258;BME280;22294;52.044;4.582;2023-02-18T07:51:06;77057.34;;;-144.37;100.00
36258;BME280;22294;52.044;4.582;2023-02-18T07:53:31;77040.97;;;-144.37;100.00
36258;BME280;22294;52.044;4.582;2023-02-18T07:55:57;77047.09;;;-144.37;100.00
36258;BME280;22294;52.044;4.582;2023-02-18T07:58:27;77049.16;;;-144.37;100.00
36258;BME280;22294;52.044;4.582;2023-02-18T08:00:53;77057.34;;;-144.37;100.00
36258;BME280;22294;52.044;4.582;2023-02-18T08:03:20;77055.28;;;-144.37;100.00
36258;BME280;22294;52.044;4.582;2023-02-18T08:05:49;77051.19;;;-144.37;100.00
36258;BME280;22294;52.044;4.582;2023-02-18T08:08:17;77065.53;;;-144.37;100.00
36258;BME280;22294;52.044;4.582;2023-02-18T08:10:44;77057.34;;;-144.37;100.00
36258;BME280;22294;52.044;4.582;2023-02-18T08:13:10;77055.28;;;-144.37;100.00
36258;BME280;22294;52.044;4.582;2023-02-18T08:15:36;77063.47;;;-144.37;100.00
36258;BME280;22294;52.044;4.582;2023-02-18T08:18:01;77055.28;;;-144.37;100.00
36258;BME280;22294;52.044;4.582;2023-02-18T08:20:27;77057.34;;;-144.37;100.00
36258;BME280;22294;52.044;4.582;2023-02-18T08:22:54;77063.47;;;-144.37;100.00
36258;BME280;22294;52.044;4.582;2023-02-18T08:25:19;77063.47;;;-144.37;100.00
36258;BME280;22294;52.044;4.582;2023-02-18T08:27:44;77077.78;;;-144.37;100.00
36258;BME280;22294;52.044;4.582;2023-02-18T08:30:10;77067.56;;;-144.37;100.00
36258;BME280;22294;52.044;4.582;2023-02-18T08:32:36;77073.69;;;-144.37;100.00
36258;BME280;22294;52.044;4.582;2023-02-18T08:35:03;77073.69;;;-144.37;100.00
36258;BME280;22294;52.044;4.582;2023-02-18T08:37:29;77071.66;;;-144.37;100.00
36258;BME280;22294;52.044;4.582;2023-02-18T08:39:54;77061.44;;;-144.37;100.00
36258;BME280;22294;52.044;4.582;2023-02-18T08:42:20;77069.63;;;-144.37;100.00
36258;BME280;22294;52.044;4.582;2023-02-18T08:44:45;77053.25;;;-144.37;100.00
36258;BME280;22294;52.044;4.582;2023-02-18T08:47:11;77057.34;;;-144.37;100.00
36258;BME280;22294;52.044;4.582;2023-02-18T08:49:36;77051.19;;;-144.37;100.00
36258;BME280;22294;52.044;4.582;2023-02-18T08:52:02;77057.34;;;-144.37;100.00
36258;BME280;22294;52.044;4.582;2023-02-18T08:54:28;77057.34;;;-144.37;100.00
36258;BME280;22294;52.044;4.582;2023-02-18T08:56:54;77061.44;;;-144.37;100.00
36258;BME280;22294;52.044;4.582;2023-02-18T08:59:24;77063.47;;;-144.37;100.00
36258;BME280;22294;52.044;4.582;2023-02-18T09:01:50;77065.53;;;-144.37;100.00
36258;BME280;22294;52.044;4.582;2023-02-18T09:04:16;77065.53;;;-144.37;100.00
36258;BME280;22294;52.044;4.582;2023-02-18T09:06:41;77065.53;;;-144.37;100.00
36258;BME280;22294;52.044;4.582;2023-02-18T09:09:07;77059.38;;;-144.37;100.00
36258;BME280;22294;52.044;4.582;2023-02-18T09:11:32;77069.63;;;-144.37;100.00
36258;BME280;22294;52.044;4.582;2023-02-18T09:13:58;77067.56;;;-144.37;100.00
36258;BME280;22294;52.044;4.582;2023-02-18T09:16:23;77055.28;;;-144.37;100.00
36258;BME280;22294;52.044;4.582;2023-02-18T09:18:49;77065.53;;;-144.37;100.00
36258;BME280;22294;52.044;4.582;2023-02-18T09:21:16;77059.38;;;-144.37;100.00
36258;BME280;22294;52.044;4.582;2023-02-18T09:23:43;77065.53;;;-144.37;100.00
36258;BME280;22294;52.044;4.582;2023-02-18T09:26:12;77067.56;;;-144.37;100.00
36258;BME280;22294;52.044;4.582;2023-02-18T09:28:38;77061.44;;;-144.37;100.00
36258;BME280;22294;52.044;4.582;2023-02-18T09:31:10;77071.66;;;-144.37;100.00
36258;BME280;22294;52.044;4.582;2023-02-18T09:33:38;77065.53;;;-144.37;100.00
36258;BME280;22294;52.044;4.582;2023-02-18T09:36:04;77065.53;;;-144.37;100.00
36258;BME280;22294;52.044;4.582;2023-02-18T09:38:30;77065.53;;;-144.37;100.00
36258;BME280;22294;52.044;4.582;2023-02-18T09:40:56;77065.53;;;-144.37;100.00
36258;BME280;22294;52.044;4.582;2023-02-18T09:43:29;77069.63;;;-144.37;100.00
36258;BME280;22294;52.044;4.582;2023-02-18T09:45:58;77065.53;;;-144.37;100.00
36258;BME280;22294;52.044;4.582;2023-02-18T09:48:32;77065.53;;;-144.37;100.00
36258;BME280;22294;52.044;4.582;2023-02-18T09:50:58;77061.44;;;-144.37;100.00
36258;BME280;22294;52.044;4.582;2023-02-18T09:53:24;77053.25;;;-144.37;100.00
36258;BME280;22294;52.044;4.582;2023-02-18T09:55:54;77059.38;;;-144.37;100.00
36258;BME280;22294;52.044;4.582;2023-02-18T09:58:25;77057.34;;;-144.37;100.00
36258;BME280;22294;52.044;4.582;2023-02-18T10:01:03;77051.19;;;-144.37;100.00
36258;BME280;22294;52.044;4.582;2023-02-18T10:03:30;77051.19;;;-144.37;100.00
36258;BME280;22294;52.044;4.582;2023-02-18T10:06:05;77045.06;;;-144.37;100.00
36258;BME280;22294;52.044;4.582;2023-02-18T10:08:37;77061.44;;;-144.37;100.00
36258;BME280;22294;52.044;4.582;2023-02-18T10:11:10;77055.28;;;-144.37;100.00
36258;BME280;22294;52.044;4.582;2023-02-18T10:13:39;77057.34;;;-144.37;100.00
36258;BME280;22294;52.044;4.582;2023-02-18T10:16:05;77055.28;;;-144.37;100.00
36258;BME280;22294;52.044;4.582;2023-02-18T10:18:33;77065.53;;;-144.37;100.00
36258;BME280;22294;52.044;4.582;2023-02-18T10:21:05;77053.25;;;-144.37;100.00
36258;BME280;22294;52.044;4.582;2023-02-18T10:23:33;77055.28;;;-144.37;100.00
36258;BME280;22294;52.044;4.582;2023-02-18T10:26:02;77053.25;;;-144.37;100.00
36258;BME280;22294;52.044;4.582;2023-02-18T10:28:30;77047.09;;;-144.37;100.00
36258;BME280;22294;52.044;4.582;2023-02-18T10:31:02;77047.09;;;-144.37;100.00
36258;BME280;22294;52.044;4.582;2023-02-18T10:39:47;77049.16;;;-144.37;100.00
36258;BME280;22294;52.044;4.582;2023-02-18T10:45:22;77040.97;;;-144.37;100.00
36258;BME280;22294;52.044;4.582;2023-02-18T10:48:14;77036.88;;;-144.37;100.00
36258;BME280;22294;52.044;4.582;2023-02-18T10:50:46;77030.75;;;-144.37;100.00
36258;BME280;22294;52.044;4.582;2023-02-18T10:53:31;77030.75;;;-144.37;100.00
36258;BME280;22294;52.044;4.582;2023-02-18T10:55:58;77032.78;;;-144.37;100.00
36258;BME280;22294;52.044;4.582;2023-02-18T10:58:30;77036.88;;;-144.37;100.00
36258;BME280;22294;52.044;4.582;2023-02-18T11:00:56;77020.50;;;-144.37;100.00
36258;BME280;22294;52.044;4.582;2023-02-18T11:03:45;77026.66;;;-144.37;100.00
36258;BME280;22294;52.044;4.582;2023-02-18T11:08:47;77022.56;;;-144.37;100.00
36258;BME280;22294;52.044;4.582;2023-02-18T11:11:35;77020.50;;;-144.37;100.00
36258;BME280;22294;52.044;4.582;2023-02-18T11:14:03;77024.59;;;-144.37;100.00
36258;BME280;22294;52.044;4.582;2023-02-18T11:16:40;77024.59;;;-144.37;100.00
36258;BME280;22294;52.044;4.582;2023-02-18T11:19:36;77024.59;;;-144.37;100.00
36258;BME280;22294;52.044;4.582;2023-02-18T11:22:23;77026.66;;;-144.37;100.00
36258;BME280;22294;52.044;4.582;2023-02-18T11:24:57;77024.59;;;-144.37;100.00
36258;BME280;22294;52.044;4.582;2023-02-18T11:27:43;77022.56;;;-144.37;100.00
36258;BME280;22294;52.044;4.582;2023-02-18T11:32:48;77012.34;;;-144.37;100.00
36258;BME280;22294;52.044;4.582;2023-02-18T11:35:28;77008.25;;;-144.37;100.00
36258;BME280;22294;52.044;4.582;2023-02-18T11:37:56;77018.47;;;-144.37;100.00
36258;BME280;22294;52.044;4.582;2023-02-18T11:40:27;77018.47;;;-144.37;100.00
36258;BME280;22294;52.044;4.582;2023-02-18T11:43:05;77012.34;;;-144.37;100.00
36258;BME280;22294;52.044;4.582;2023-02-18T11:45:33;77010.28;;;-144.37;100.00
36258;BME280;22294;52.044;4.582;2023-02-18T11:48:16;77004.16;;;-144.37;100.00
36258;BME280;22294;52.044;4.582;2023-02-18T11:50:42;77008.25;;;-144.37;100.00
36258;BME280;22294;52.044;4.582;2023-02-18T11:55:58;76991.88;;;-144.37;100.00
36258;BME280;22294;52.044;4.582;2023-02-18T11:58:24;76991.88;;;-144.37;100.00
36258;BME280;22294;52.044;4.582;2023-02-18T12:00:54;76987.78;;;-144.37;100.00
36258;BME280;22294;52.044;4.582;2023-02-18T12:06:32;76965.28;;;-144.37;100.00
36258;BME280;22294;52.044;4.582;2023-02-18T12:09:27;76950.97;;;-144.37;100.00
36258;BME280;22294;52.044;4.582;2023-02-18T12:12:03;76930.50;;;-144.37;100.00
36258;BME280;22294;52.044;4.582;2023-02-18T12:14:30;76903.91;;;-144.37;100.00
36258;BME280;22294;52.044;4.582;2023-02-18T12:17:32;76893.69;;;-144.37;100.00
36258;BME280;22294;52.044;4.582;2023-02-18T12:25:43;76875.28;;;-144.37;100.00
36258;BME280;22294;52.044;4.582;2023-02-18T12:28:55;76869.16;;;-144.37;100.00
36258;BME280;22294;52.044;4.582;2023-02-18T12:31:28;76877.31;;;-144.37;100.00
36258;BME280;22294;52.044;4.582;2023-02-18T12:47:34;76832.31;;;-144.37;100.00
36258;BME280;22294;52.044;4.582;2023-02-18T12:52:58;76834.38;;;-144.37;100.00
36258;BME280;22294;52.044;4.582;2023-02-18T12:55:35;76830.28;;;-144.37;100.00
36258;BME280;22294;52.044;4.582;2023-02-18T12:58:15;76832.31;;;-144.37;100.00
36258;BME280;22294;52.044;4.582;2023-02-18T13:03:57;76850.75;;;-144.37;100.00
36258;BME280;22294;52.044;4.582;2023-02-18T13:09:27;76842.56;;;-144.37;100.00
36258;BME280;22294;52.044;4.582;2023-02-18T13:15:02;76842.56;;;-144.37;100.00
36258;BME280;22294;52.044;4.582;2023-02-18T13:17:33;76830.28;;;-144.37;100.00
36258;BME280;22294;52.044;4.582;2023-02-18T13:20:13;76834.38;;;-144.37;100.00
36258;BME280;22294;52.044;4.582;2023-02-18T13:22:41;76850.75;;;-144.37;100.00
36258;BME280;22294;52.044;4.582;2023-02-18T13:25:11;76852.78;;;-144.37;100.00
36258;BME280;22294;52.044;4.582;2023-02-18T13:30:22;76852.78;;;-144.37;100.00
36258;BME280;22294;52.044;4.582;2023-02-18T13:35:37;76846.66;;;-144.37;100.00
36258;BME280;22294;52.044;4.582;2023-02-18T13:38:25;76840.50;;;-144.37;100.00
36258;BME280;22294;52.044;4.582;2023-02-18T13:40:57;76836.41;;;-144.37;100.00
36258;BME280;22294;52.044;4.582;2023-02-18T13:46:22;76820.06;;;-144.37;100.00
36258;BME280;22294;52.044;4.582;2023-02-18T13:51:26;76813.91;;;-144.37;100.00
36258;BME280;22294;52.044;4.582;2023-02-18T13:56:39;76807.78;;;-144.37;100.00
36258;BME280;22294;52.044;4.582;2023-02-18T13:59:21;76797.56;;;-144.37;100.00
36258;BME280;22294;52.044;4.582;2023-02-18T14:01:49;76797.56;;;-144.37;100.00
36258;BME280;22294;52.044;4.582;2023-02-18T14:07:28;76789.38;;;-144.37;100.00
36258;BME280;22294;52.044;4.582;2023-02-18T14:10:32;76789.38;;;-144.37;100.00
36258;BME280;22294;52.044;4.582;2023-02-18T14:28:54;76764.81;;;-144.37;98.65
36258;BME280;22294;52.044;4.582;2023-02-18T14:31:27;76781.19;;;-144.37;98.90
36258;BME280;22294;52.044;4.582;2023-02-18T14:42:19;76826.19;;;-144.37;99.83
36258;BME280;22294;52.044;4.582;2023-02-18T14:50:14;76846.66;;;-144.37;100.00
36258;BME280;22294;52.044;4.582;2023-02-18T14:52:46;76850.75;;;-144.37;100.00
36258;BME280;22294;52.044;4.582;2023-02-18T14:55:34;76848.69;;;-144.37;100.00
36258;BME280;22294;52.044;4.582;2023-02-18T14:58:04;76852.78;;;-144.37;100.00